Alexandria Bay, New York
Current Conditions -  °F | °C
As of 8:58 PM on Tuesday 21 Oct 2014 (Local Time) from KGTB Reporting Station
Overcast Overcast  
Wind Chill: 35°   Ceiling: 500
Heat Index: 43°   Visibility: 10mi
Dew Point: 42°   Wind: 16mph
Humidity: 99%   Direction: 40°NE
Pressure: 30.04"   Gusts: NA
Location:  44.34°N, 75.92°W
Report Text: KGTB 220058Z AUTO 04014KT 10SM OVC005 06/06 A3004 RMK AO2 SLP177 T00590057
Loading
Personal Weather Stations






























Interactive Weather Map
Tropical Storm Tracking
New forecast layout! Learn more

10-Day Weather Forecast

Advertisements
Track Severe Weather on mobile